createdAt,value
2019-04-16T00:02:48.567Z,9.71
2019-04-16T00:08:09.747Z,9.65
2019-04-16T00:13:20.508Z,9.63
2019-04-16T00:18:22.593Z,9.55
2019-04-16T00:23:36.213Z,9.64
2019-04-16T00:28:38.337Z,9.53
2019-04-16T00:33:42.846Z,9.39
2019-04-16T00:38:44.507Z,9.40
2019-04-16T00:43:46.625Z,9.33
2019-04-16T00:48:48.705Z,9.33
2019-04-16T00:53:50.772Z,9.18
2019-04-16T00:58:53.096Z,9.17
2019-04-16T01:03:55.342Z,9.18
2019-04-16T01:08:57.427Z,9.13
2019-04-16T01:13:59.541Z,9.13
2019-04-16T01:19:01.592Z,9.09
2019-04-16T01:24:03.738Z,9.04
2019-04-16T01:29:13.264Z,8.90
2019-04-16T01:34:47.133Z,8.81
2019-04-16T01:39:49.736Z,8.75
2019-04-16T01:44:51.918Z,8.56
2019-04-16T01:49:53.970Z,8.70
2019-04-16T01:54:56.189Z,8.79
2019-04-16T01:59:58.301Z,8.79
2019-04-16T02:05:00.390Z,8.61
2019-04-16T02:10:06.412Z,8.69
2019-04-16T02:15:07.366Z,8.66
2019-04-16T02:20:09.413Z,8.61
2019-04-16T02:25:11.506Z,8.60
2019-04-16T02:30:13.932Z,8.55
2019-04-16T02:35:16.050Z,8.49
2019-04-16T02:40:18.862Z,8.49
2019-04-16T02:45:23.472Z,8.41
2019-04-16T02:50:32.722Z,8.35
2019-04-16T02:55:51.014Z,8.27
2019-04-16T03:01:30.765Z,8.16
2019-04-16T03:06:35.014Z,8.06
2019-04-16T03:11:37.158Z,7.93
2019-04-16T03:16:50.211Z,7.75
2019-04-16T03:21:55.504Z,7.73
2019-04-16T03:26:56.260Z,7.60
2019-04-16T03:31:59.601Z,7.50
2019-04-16T03:37:03.095Z,7.47
2019-04-16T03:42:05.605Z,7.35
2019-04-16T03:47:07.820Z,7.48
2019-04-16T03:52:09.968Z,7.46
2019-04-16T03:57:12.084Z,7.42
2019-04-16T04:02:15.516Z,7.48
2019-04-16T04:07:18.247Z,7.46
2019-04-16T04:12:20.316Z,7.41
2019-04-16T04:17:22.960Z,7.36
2019-04-16T04:22:25.937Z,7.36
2019-04-16T04:27:28.896Z,7.40
2019-04-16T04:32:32.424Z,7.33
2019-04-16T04:37:34.913Z,7.21
2019-04-16T04:42:36.990Z,7.28
2019-04-16T04:47:39.139Z,7.13
2019-04-16T04:52:43.261Z,7.26
2019-04-16T04:57:45.251Z,7.12
2019-04-16T05:02:47.448Z,6.96
2019-04-16T05:07:49.492Z,7.05
2019-04-16T05:12:53.701Z,7.15
2019-04-16T05:17:57.619Z,7.02
2019-04-16T05:22:59.777Z,7.06
2019-04-16T05:28:01.845Z,7.00
2019-04-16T05:33:05.621Z,7.09
2019-04-16T05:38:07.955Z,7.25
2019-04-16T05:43:11.226Z,8.17
2019-04-16T05:48:13.325Z,10.61
2019-04-16T05:53:15.369Z,12.41
2019-04-16T05:58:17.488Z,13.75
2019-04-16T06:03:21.630Z,14.69
2019-04-16T06:08:23.613Z,15.78
2019-04-16T06:13:45.381Z,16.61
2019-04-16T06:19:18.925Z,17.63
2019-04-16T06:24:43.568Z,18.12
2019-04-16T06:30:32.996Z,19.11
2019-04-16T06:35:58.671Z,19.71
2019-04-16T06:41:08.635Z,19.26
2019-04-16T06:46:29.322Z,19.28
2019-04-16T06:51:44.481Z,19.29
2019-04-16T06:57:01.373Z,18.62
2019-04-16T07:02:24.351Z,18.10
2019-04-16T07:07:46.779Z,17.61
2019-04-16T07:12:48.125Z,17.67
2019-04-16T07:17:50.326Z,17.27
2019-04-16T07:22:52.893Z,17.43
2019-04-16T07:28:10.519Z,17.15
2019-04-16T07:33:34.975Z,17.29
2019-04-16T07:38:47.986Z,17.09
2019-04-16T07:44:21.741Z,17.44
2019-04-16T07:49:29.009Z,17.53
2019-04-16T07:54:48.194Z,18.12
2019-04-16T07:59:50.274Z,18.12
2019-04-16T08:04:52.398Z,18.25
2019-04-16T08:09:54.522Z,18.16
2019-04-16T08:14:56.602Z,18.08
2019-04-16T08:19:59.007Z,18.14
2019-04-16T08:25:03.255Z,18.14
2019-04-16T08:30:09.841Z,18.04
2019-04-16T08:35:12.098Z,18.23
2019-04-16T08:40:14.200Z,18.48
2019-04-16T08:45:20.632Z,18.39
2019-04-16T08:50:25.851Z,18.39
2019-04-16T08:55:26.636Z,17.89
2019-04-16T09:00:28.882Z,18.00
2019-04-16T09:05:33.398Z,18.15
2019-04-16T09:10:35.787Z,18.04
2019-04-16T09:15:38.399Z,17.90
2019-04-16T09:20:41.890Z,18.15
2019-04-16T09:26:11.346Z,18.02
2019-04-16T09:31:22.078Z,17.87
2019-04-16T09:36:45.051Z,17.93
2019-04-16T09:41:48.799Z,17.89
2019-04-16T09:46:53.078Z,18.05
2019-04-16T09:51:55.188Z,18.11
2019-04-16T09:56:59.766Z,18.03
2019-04-16T10:02:07.456Z,18.26
2019-04-16T10:07:09.645Z,18.02
2019-04-16T10:12:11.691Z,18.12
2019-04-16T10:17:13.853Z,17.91
2019-04-16T10:22:17.322Z,17.97
2019-04-16T10:27:31.235Z,17.90
2019-04-16T10:32:31.379Z,18.12
2019-04-16T10:37:33.507Z,18.27
2019-04-16T10:43:01.000Z,18.33
2019-04-16T10:48:32.121Z,18.36
2019-04-16T10:53:49.699Z,18.48
2019-04-16T10:59:26.691Z,18.80
2019-04-16T11:04:51.330Z,18.75
2019-04-16T11:09:53.402Z,18.46
2019-04-16T11:14:55.446Z,18.42
2019-04-16T11:20:00.084Z,18.35
2019-04-16T11:25:01.707Z,18.63
2019-04-16T11:30:06.225Z,18.77
2019-04-16T11:35:08.489Z,18.91
2019-04-16T11:40:10.806Z,18.82
2019-04-16T11:45:14.282Z,18.94
2019-04-16T11:50:16.435Z,19.09
2019-04-16T11:55:18.496Z,18.83
2019-04-16T12:00:28.738Z,18.72
2019-04-16T12:05:35.269Z,18.68
2019-04-16T12:10:59.735Z,18.73
2019-04-16T12:16:33.348Z,18.72
2019-04-16T12:21:45.967Z,18.69
2019-04-16T12:27:16.538Z,18.44
2019-04-16T12:32:44.208Z,18.54
2019-04-16T12:38:13.161Z,18.49
2019-04-16T12:43:20.670Z,18.43
2019-04-16T12:48:48.463Z,18.44
2019-04-16T12:54:03.284Z,18.49
2019-04-16T12:59:12.588Z,18.52
2019-04-16T13:04:34.289Z,18.56
2019-04-16T13:09:47.576Z,18.51
2019-04-16T13:15:14.802Z,18.54
2019-04-16T13:20:45.890Z,18.52
2019-04-16T13:26:03.220Z,18.63
2019-04-16T13:31:05.305Z,18.46
2019-04-16T13:36:07.397Z,18.53
2019-04-16T13:41:09.496Z,18.56
2019-04-16T13:46:11.559Z,18.55
2019-04-16T13:51:18.836Z,18.48
2019-04-16T13:56:29.502Z,18.55
2019-04-16T14:01:35.449Z,18.49
2019-04-16T14:06:37.528Z,18.48
2019-04-16T14:11:39.646Z,18.41
2019-04-16T14:16:43.812Z,18.41
2019-04-16T14:21:45.738Z,18.25
2019-04-16T14:26:47.887Z,18.28
2019-04-16T14:31:52.317Z,18.31
2019-04-16T14:36:57.052Z,18.29
2019-04-16T14:41:58.469Z,18.31
2019-04-16T14:47:01.978Z,18.38
2019-04-16T14:52:04.433Z,18.32
2019-04-16T14:57:10.185Z,18.32
2019-04-16T15:02:29.330Z,18.36
2019-04-16T15:07:38.314Z,18.27
2019-04-16T15:13:02.900Z,18.26
2019-04-16T15:18:09.517Z,18.14
2019-04-16T15:23:31.233Z,18.16
2019-04-16T15:28:41.114Z,18.14
2019-04-16T15:33:57.931Z,18.08
2019-04-16T15:39:19.023Z,17.92
2019-04-16T15:44:32.180Z,17.77
2019-04-16T15:49:55.657Z,17.77
2019-04-16T15:55:14.415Z,17.80
2019-04-16T16:00:45.607Z,17.81
2019-04-16T16:05:58.221Z,17.80
2019-04-16T16:11:02.198Z,17.77
2019-04-16T16:16:04.276Z,17.68
2019-04-16T16:21:06.464Z,17.63
2019-04-16T16:26:08.651Z,17.59
2019-04-16T16:31:10.729Z,17.52
2019-04-16T16:36:12.838Z,17.49
2019-04-16T16:41:14.952Z,17.45
2019-04-16T16:46:29.099Z,17.39
2019-04-16T16:51:31.271Z,17.42
2019-04-16T16:56:46.085Z,17.38
2019-04-16T17:02:10.558Z,17.36
2019-04-16T17:07:17.527Z,17.27
2019-04-16T17:12:17.864Z,17.20
2019-04-16T17:17:19.981Z,17.15
2019-04-16T17:22:22.097Z,17.07
2019-04-16T17:27:24.199Z,16.96
2019-04-16T17:32:26.328Z,16.95
2019-04-16T17:37:28.895Z,16.85
2019-04-16T17:42:38.452Z,16.84
2019-04-16T17:48:09.135Z,16.78
2019-04-16T17:53:33.359Z,16.72
2019-04-16T17:58:44.409Z,16.63
2019-04-16T18:03:53.305Z,16.55
2019-04-16T18:09:09.395Z,16.38
2019-04-16T18:14:33.788Z,16.32
2019-04-16T18:20:12.956Z,16.23
2019-04-16T18:25:35.209Z,16.13
2019-04-16T18:30:49.222Z,16.07
2019-04-16T18:36:14.138Z,15.93
2019-04-16T18:41:35.850Z,15.84
2019-04-16T18:46:57.552Z,15.69
2019-04-16T18:52:01.754Z,15.56
2019-04-16T18:57:03.910Z,15.49
2019-04-16T19:02:08.772Z,15.31
2019-04-16T19:07:10.162Z,15.28
2019-04-16T19:12:12.250Z,15.23
2019-04-16T19:17:16.670Z,15.17
2019-04-16T19:22:18.323Z,15.02
2019-04-16T19:27:20.371Z,14.88
2019-04-16T19:32:24.830Z,14.76
2019-04-16T19:37:26.483Z,14.69
2019-04-16T19:42:29.575Z,14.57
2019-04-16T19:47:35.175Z,14.58
2019-04-16T19:52:35.879Z,14.50
2019-04-16T19:57:37.949Z,14.37
2019-04-16T20:02:40.048Z,14.24
2019-04-16T20:07:42.108Z,14.24
2019-04-16T20:12:44.148Z,14.20
2019-04-16T20:17:46.231Z,14.19
2019-04-16T20:22:48.342Z,14.09
2019-04-16T20:27:50.572Z,13.97
2019-04-16T20:32:52.681Z,13.93
2019-04-16T20:37:55.151Z,13.80
2019-04-16T20:42:57.942Z,13.79
2019-04-16T20:48:00.010Z,13.77
2019-04-16T20:53:06.249Z,13.59
2019-04-16T20:58:05.996Z,13.52
2019-04-16T21:03:21.501Z,13.48
2019-04-16T21:08:12.068Z,13.51
2019-04-16T21:13:16.277Z,13.42
2019-04-16T21:18:18.254Z,13.30
2019-04-16T21:23:20.349Z,13.26
2019-04-16T21:28:50.825Z,13.26
2019-04-16T21:34:01.591Z,13.15
2019-04-16T21:39:09.096Z,13.07
2019-04-16T21:44:13.118Z,12.99
2019-04-16T21:49:15.256Z,12.93
2019-04-16T21:54:17.333Z,12.89
2019-04-16T21:59:21.349Z,12.86
2019-04-16T22:04:23.404Z,12.83
2019-04-16T22:09:25.457Z,12.79
2019-04-16T22:14:27.498Z,12.73
2019-04-16T22:19:29.763Z,12.66
2019-04-16T22:24:31.823Z,12.53
2019-04-16T22:29:33.909Z,12.54
2019-04-16T22:34:36.074Z,12.47
2019-04-16T22:39:50.841Z,12.41
2019-04-16T22:45:10.056Z,12.35
2019-04-16T22:50:17.013Z,12.31
2019-04-16T22:55:16.194Z,12.23
2019-04-16T23:00:27.339Z,12.15
2019-04-16T23:05:30.817Z,11.98
2019-04-16T23:10:33.364Z,12.03
2019-04-16T23:15:35.440Z,12.00
2019-04-16T23:20:39.432Z,11.92
2019-04-16T23:25:41.510Z,11.76
2019-04-16T23:30:43.630Z,11.70
2019-04-16T23:35:45.741Z,11.58
2019-04-16T23:40:47.834Z,11.54
2019-04-16T23:46:08.225Z,11.48
2019-04-16T23:51:28.683Z,11.40
2019-04-16T23:56:34.453Z,11.23
